createdAt,value
2018-07-19T00:00:06.861Z,1008.49
2018-07-19T00:01:06.860Z,1008.49
2018-07-19T00:02:06.945Z,1008.50
2018-07-19T00:03:06.918Z,1008.51
2018-07-19T00:04:06.825Z,1008.56
2018-07-19T00:05:06.926Z,1008.52
2018-07-19T00:06:06.994Z,1008.55
2018-07-19T00:07:06.920Z,1008.55
2018-07-19T00:08:07.026Z,1008.53
2018-07-19T00:09:06.941Z,1008.55
2018-07-19T00:10:06.953Z,1008.49
2018-07-19T00:11:06.926Z,1008.52
2018-07-19T00:12:06.942Z,1008.48
2018-07-19T00:13:06.832Z,1008.46
2018-07-19T00:14:06.941Z,1008.49
2018-07-19T00:15:06.895Z,1008.45
2018-07-19T00:16:06.886Z,1008.48
2018-07-19T00:17:06.960Z,1008.50
2018-07-19T00:18:06.834Z,1008.48
2018-07-19T00:19:07.089Z,1008.42
2018-07-19T00:20:06.928Z,1008.43
2018-07-19T00:21:06.923Z,1008.43
2018-07-19T00:22:06.889Z,1008.44
2018-07-19T00:23:06.873Z,1008.44
2018-07-19T00:24:06.930Z,1008.46
2018-07-19T00:25:06.861Z,1008.46
2018-07-19T00:26:06.856Z,1008.45
2018-07-19T00:27:06.854Z,1008.43
2018-07-19T00:28:06.840Z,1008.45
2018-07-19T00:29:06.933Z,1008.43
2018-07-19T00:30:06.933Z,1008.42
2018-07-19T00:31:06.839Z,1008.44
2018-07-19T00:32:06.981Z,1008.45
2018-07-19T00:33:06.845Z,1008.44
2018-07-19T00:34:06.967Z,1008.43
2018-07-19T00:35:06.920Z,1008.40
2018-07-19T00:36:06.911Z,1008.41
2018-07-19T00:37:06.944Z,1008.41
2018-07-19T00:38:06.880Z,1008.44
2018-07-19T00:39:06.871Z,1008.39
2018-07-19T00:40:06.876Z,1008.44
2018-07-19T00:41:06.949Z,1008.43
2018-07-19T00:42:06.880Z,1008.46
2018-07-19T00:43:06.947Z,1008.43
2018-07-19T00:44:06.964Z,1008.44
2018-07-19T00:45:06.950Z,1008.46
2018-07-19T00:46:06.951Z,1008.47
2018-07-19T00:47:06.908Z,1008.44
2018-07-19T00:48:06.887Z,1008.50
2018-07-19T00:49:06.954Z,1008.46
2018-07-19T00:50:06.823Z,1008.46
2018-07-19T00:51:06.859Z,1008.43
2018-07-19T00:52:06.913Z,1008.42
2018-07-19T00:53:06.895Z,1008.45
2018-07-19T00:54:06.948Z,1008.43
2018-07-19T00:55:06.902Z,1008.44
2018-07-19T00:56:06.871Z,1008.43
2018-07-19T00:57:06.828Z,1008.48
2018-07-19T00:58:06.874Z,1008.47
2018-07-19T00:59:06.835Z,1008.45
2018-07-19T01:00:06.960Z,1008.46
2018-07-19T01:01:06.878Z,1008.43
2018-07-19T01:02:06.961Z,1008.43
2018-07-19T01:03:06.923Z,1008.45
2018-07-19T01:04:07.011Z,1008.46
2018-07-19T01:05:06.990Z,1008.42
2018-07-19T01:06:06.940Z,1008.41
2018-07-19T01:07:06.990Z,1008.43
2018-07-19T01:08:06.939Z,1008.42
2018-07-19T01:09:06.926Z,1008.43
2018-07-19T01:10:06.973Z,1008.47
2018-07-19T01:11:06.884Z,1008.42
2018-07-19T01:12:06.945Z,1008.42
2018-07-19T01:13:06.885Z,1008.41
2018-07-19T01:14:06.865Z,1008.41
2018-07-19T01:15:07.029Z,1008.39
2018-07-19T01:16:06.967Z,1008.38
2018-07-19T01:17:06.992Z,1008.36
2018-07-19T01:18:06.906Z,1008.34
2018-07-19T01:19:06.892Z,1008.35
2018-07-19T01:20:07.001Z,1008.31
2018-07-19T01:21:06.935Z,1008.34
2018-07-19T01:22:06.970Z,1008.36
2018-07-19T01:23:07.002Z,1008.32
2018-07-19T01:24:07.013Z,1008.33
2018-07-19T01:25:06.979Z,1008.35
2018-07-19T01:26:07.024Z,1008.33
2018-07-19T01:27:07.024Z,1008.35
2018-07-19T01:28:07.016Z,1008.37
2018-07-19T01:29:07.000Z,1008.42
2018-07-19T01:30:06.955Z,1008.40
2018-07-19T01:31:06.980Z,1008.41
2018-07-19T01:32:06.958Z,1008.45
2018-07-19T01:33:06.889Z,1008.41
2018-07-19T01:34:07.009Z,1008.45
2018-07-19T01:35:06.951Z,1008.41
2018-07-19T01:36:06.923Z,1008.42
2018-07-19T01:37:06.988Z,1008.39
2018-07-19T01:38:06.906Z,1008.40
2018-07-19T01:39:07.023Z,1008.38
2018-07-19T01:40:06.923Z,1008.39
2018-07-19T01:41:06.918Z,1008.41
2018-07-19T01:42:06.917Z,1008.40
2018-07-19T01:43:06.978Z,1008.40
2018-07-19T01:44:06.927Z,1008.40
2018-07-19T01:45:06.922Z,1008.42
2018-07-19T01:46:06.990Z,1008.41
2018-07-19T01:47:06.921Z,1008.39
2018-07-19T01:48:06.921Z,1008.44
2018-07-19T01:49:06.990Z,1008.42
2018-07-19T01:50:06.994Z,1008.42
2018-07-19T01:51:06.993Z,1008.44
2018-07-19T01:52:06.996Z,1008.44
2018-07-19T01:53:06.995Z,1008.44
2018-07-19T01:54:06.994Z,1008.42
2018-07-19T01:55:06.926Z,1008.44
2018-07-19T01:56:06.999Z,1008.41
2018-07-19T01:57:06.996Z,1008.41
2018-07-19T01:58:06.999Z,1008.42
2018-07-19T01:59:06.933Z,1008.48
2018-07-19T02:00:07.158Z,1008.46
2018-07-19T02:01:06.932Z,1008.49
2018-07-19T02:02:06.934Z,1008.45
2018-07-19T02:03:06.933Z,1008.46
2018-07-19T02:04:07.005Z,1008.44
2018-07-19T02:05:07.010Z,1008.43
2018-07-19T02:06:07.007Z,1008.44
2018-07-19T02:07:07.001Z,1008.46
2018-07-19T02:08:07.002Z,1008.45
2018-07-19T02:09:07.042Z,1008.44
2018-07-19T02:10:07.034Z,1008.47
2018-07-19T02:11:06.975Z,1008.46
2018-07-19T02:12:07.031Z,1008.43
2018-07-19T02:13:07.036Z,1008.49
2018-07-19T02:14:06.977Z,1008.46
2018-07-19T02:15:07.036Z,1008.43
2018-07-19T02:16:07.032Z,1008.46
2018-07-19T02:17:06.928Z,1008.48
2018-07-19T02:18:06.919Z,1008.47
2018-07-19T02:19:06.969Z,1008.50
2018-07-19T02:20:07.013Z,1008.48
2018-07-19T02:21:06.950Z,1008.49
2018-07-19T02:22:06.947Z,1008.49
2018-07-19T02:23:06.962Z,1008.49
2018-07-19T02:24:07.019Z,1008.48
2018-07-19T02:25:06.949Z,1008.47
2018-07-19T02:26:06.951Z,1008.49
2018-07-19T02:27:07.023Z,1008.50
2018-07-19T02:28:07.019Z,1008.50
2018-07-19T02:29:06.956Z,1008.49
2018-07-19T02:30:06.943Z,1008.55
2018-07-19T02:31:07.018Z,1008.53
2018-07-19T02:32:07.068Z,1008.53
2018-07-19T02:33:06.942Z,1008.58
2018-07-19T02:34:06.998Z,1008.59
2018-07-19T02:35:07.056Z,1008.60
2018-07-19T02:36:07.065Z,1008.59
2018-07-19T02:37:06.961Z,1008.61
2018-07-19T02:38:07.025Z,1008.59
2018-07-19T02:39:07.053Z,1008.61
2018-07-19T02:40:07.056Z,1008.59
2018-07-19T02:41:07.066Z,1008.61
2018-07-19T02:42:07.049Z,1008.63
2018-07-19T02:43:07.002Z,1008.58
2018-07-19T02:44:06.949Z,1008.65
2018-07-19T02:45:07.049Z,1008.63
2018-07-19T02:46:07.003Z,1008.62
2018-07-19T02:47:07.062Z,1008.65
2018-07-19T02:48:07.063Z,1008.69
2018-07-19T02:49:06.957Z,1008.67
2018-07-19T02:50:06.922Z,1008.72
2018-07-19T02:51:06.924Z,1008.73
2018-07-19T02:52:07.045Z,1008.72
2018-07-19T02:53:06.964Z,1008.69
2018-07-19T02:54:06.927Z,1008.67
2018-07-19T02:55:06.899Z,1008.73
2018-07-19T02:56:07.029Z,1008.73
2018-07-19T02:57:06.994Z,1008.74
2018-07-19T02:58:06.941Z,1008.76
2018-07-19T02:59:06.933Z,1008.74
2018-07-19T03:00:06.931Z,1008.73
2018-07-19T03:01:07.061Z,1008.78
2018-07-19T03:02:07.025Z,1008.79
2018-07-19T03:03:07.015Z,1008.77
2018-07-19T03:04:07.002Z,1008.79
2018-07-19T03:05:07.044Z,1008.79
2018-07-19T03:06:07.043Z,1008.77
2018-07-19T03:07:07.045Z,1008.79
2018-07-19T03:08:07.005Z,1008.79
2018-07-19T03:09:06.989Z,1008.77
2018-07-19T03:10:06.996Z,1008.79
2018-07-19T03:11:07.028Z,1008.81
2018-07-19T03:12:07.071Z,1008.78
2018-07-19T03:13:07.071Z,1008.76
2018-07-19T03:14:07.026Z,1008.74
2018-07-19T03:15:07.086Z,1008.75
2018-07-19T03:16:06.971Z,1008.73
2018-07-19T03:17:07.050Z,1008.76
2018-07-19T03:18:07.081Z,1008.74
2018-07-19T03:19:06.972Z,1008.79
2018-07-19T03:20:07.151Z,1008.78
2018-07-19T03:21:07.056Z,1008.78
2018-07-19T03:22:07.096Z,1008.78
2018-07-19T03:23:07.030Z,1008.79
2018-07-19T03:24:07.020Z,1008.75
2018-07-19T03:25:07.057Z,1008.78
2018-07-19T03:26:07.091Z,1008.78
2018-07-19T03:27:06.993Z,1008.77
2018-07-19T03:28:07.025Z,1008.78
2018-07-19T03:29:07.115Z,1008.79
2018-07-19T03:30:06.991Z,1008.79
2018-07-19T03:31:07.121Z,1008.82
2018-07-19T03:32:06.997Z,1008.81
2018-07-19T03:33:06.998Z,1008.79
2018-07-19T03:34:07.064Z,1008.82
2018-07-19T03:35:07.033Z,1008.82
2018-07-19T03:36:07.001Z,1008.84
2018-07-19T03:37:06.999Z,1008.83
2018-07-19T03:38:07.069Z,1008.86
2018-07-19T03:39:07.013Z,1008.85
2018-07-19T03:40:07.109Z,1008.87
2018-07-19T03:41:07.000Z,1008.88
2018-07-19T03:42:07.067Z,1008.86
2018-07-19T03:43:07.004Z,1008.82
2018-07-19T03:44:07.072Z,1008.89
2018-07-19T03:45:07.007Z,1008.84
2018-07-19T03:46:07.005Z,1008.87
2018-07-19T03:47:07.002Z,1008.89
2018-07-19T03:48:07.070Z,1008.87
2018-07-19T03:49:07.007Z,1008.88
2018-07-19T03:50:07.072Z,1008.88
2018-07-19T03:51:07.027Z,1008.87
2018-07-19T03:52:06.976Z,1008.87
2018-07-19T03:53:07.063Z,1008.92
2018-07-19T03:54:06.961Z,1008.89
2018-07-19T03:55:07.065Z,1008.87
2018-07-19T03:56:07.072Z,1008.89
2018-07-19T03:57:07.065Z,1008.90
2018-07-19T03:58:07.078Z,1008.87
2018-07-19T03:59:07.014Z,1008.91
2018-07-19T04:00:07.027Z,1008.87
2018-07-19T04:01:07.048Z,1008.91
2018-07-19T04:02:07.078Z,1008.88
2018-07-19T04:03:07.049Z,1008.91
2018-07-19T04:04:07.106Z,1008.92
2018-07-19T04:05:07.102Z,1008.88
2018-07-19T04:06:07.122Z,1008.88
2018-07-19T04:07:07.088Z,1008.88
2018-07-19T04:08:07.039Z,1008.90
2018-07-19T04:09:07.147Z,1008.90
2018-07-19T04:10:07.063Z,1008.88
2018-07-19T04:11:07.112Z,1008.86
2018-07-19T04:12:07.087Z,1008.91
2018-07-19T04:13:07.029Z,1008.88
2018-07-19T04:14:07.104Z,1008.87
2018-07-19T04:15:07.089Z,1008.89
2018-07-19T04:16:07.057Z,1008.85
2018-07-19T04:17:07.143Z,1008.87
2018-07-19T04:18:07.123Z,1008.85
2018-07-19T04:19:07.115Z,1008.86
2018-07-19T04:20:07.107Z,1008.86
2018-07-19T04:21:07.128Z,1008.84
2018-07-19T04:22:07.124Z,1008.88
2018-07-19T04:23:06.995Z,1008.88
2018-07-19T04:24:07.129Z,1008.89
2018-07-19T04:25:07.136Z,1008.92
2018-07-19T04:26:07.124Z,1008.87
2018-07-19T04:27:07.118Z,1008.88
2018-07-19T04:28:07.055Z,1008.89
2018-07-19T04:29:07.097Z,1008.90
2018-07-19T04:30:07.118Z,1008.92
2018-07-19T04:31:07.083Z,1008.89
2018-07-19T04:32:07.045Z,1008.88
2018-07-19T04:33:07.051Z,1008.86
2018-07-19T04:34:06.988Z,1008.89
2018-07-19T04:35:07.030Z,1008.87
2018-07-19T04:36:07.104Z,1008.91
2018-07-19T04:37:06.974Z,1008.91
2018-07-19T04:38:07.019Z,1008.87
2018-07-19T04:39:07.088Z,1008.94
2018-07-19T04:40:07.089Z,1008.93
2018-07-19T04:41:07.013Z,1008.96
2018-07-19T04:42:07.061Z,1008.93
2018-07-19T04:43:06.975Z,1008.91
2018-07-19T04:44:07.093Z,1008.96
2018-07-19T04:45:07.034Z,1008.96
2018-07-19T04:46:07.017Z,1008.93
2018-07-19T04:47:06.976Z,1008.93
2018-07-19T04:48:07.055Z,1008.93
2018-07-19T04:49:07.110Z,1008.93
2018-07-19T04:50:07.063Z,1008.94
2018-07-19T04:51:06.978Z,1008.91
2018-07-19T04:52:06.983Z,1008.88
2018-07-19T04:53:07.107Z,1008.88
2018-07-19T04:54:07.046Z,1008.91
2018-07-19T04:55:07.045Z,1008.96
2018-07-19T04:56:07.048Z,1008.92
2018-07-19T04:57:06.988Z,1008.95
2018-07-19T04:58:07.071Z,1008.96
2018-07-19T04:59:07.104Z,1008.94
2018-07-19T05:00:07.066Z,1008.93
2018-07-19T05:01:07.054Z,1008.95
2018-07-19T05:02:07.069Z,1008.93
2018-07-19T05:03:07.053Z,1008.96
2018-07-19T05:04:07.124Z,1008.98
2018-07-19T05:05:07.119Z,1008.93
2018-07-19T05:06:07.072Z,1008.99
2018-07-19T05:07:07.054Z,1008.93
2018-07-19T05:08:07.132Z,1008.96
2018-07-19T05:09:07.128Z,1008.98
2018-07-19T05:10:07.126Z,1008.97
2018-07-19T05:11:07.123Z,1008.99
2018-07-19T05:12:07.061Z,1009.00
2018-07-19T05:13:07.063Z,1009.02
2018-07-19T05:14:07.137Z,1009.07
2018-07-19T05:15:07.128Z,1009.02
2018-07-19T05:16:07.062Z,1009.04
2018-07-19T05:17:07.066Z,1009.05
2018-07-19T05:18:07.127Z,1009.02
2018-07-19T05:19:07.061Z,1009.03
2018-07-19T05:20:07.131Z,1009.02
2018-07-19T05:21:07.055Z,1008.97
2018-07-19T05:22:07.136Z,1008.98
2018-07-19T05:23:07.244Z,1008.98
2018-07-19T05:24:07.105Z,1008.94
2018-07-19T05:25:07.116Z,1008.97
2018-07-19T05:26:07.135Z,1008.99
2018-07-19T05:27:07.103Z,1008.96
2018-07-19T05:28:07.156Z,1008.96
2018-07-19T05:29:07.042Z,1008.98
2018-07-19T05:30:07.152Z,1008.96
2018-07-19T05:31:07.080Z,1008.95
2018-07-19T05:32:07.017Z,1008.97
2018-07-19T05:33:07.029Z,1008.96
2018-07-19T05:34:07.065Z,1008.95
2018-07-19T05:35:07.013Z,1008.95
2018-07-19T05:36:07.123Z,1008.95
2018-07-19T05:37:07.079Z,1008.93
2018-07-19T05:38:07.040Z,1008.95
2018-07-19T05:39:07.070Z,1008.96
2018-07-19T05:40:07.126Z,1008.98
2018-07-19T05:41:07.146Z,1008.97
2018-07-19T05:42:07.185Z,1008.93
2018-07-19T05:43:07.051Z,1008.95
2018-07-19T05:44:07.070Z,1008.93
2018-07-19T05:45:07.147Z,1008.92
2018-07-19T05:46:07.175Z,1008.93
2018-07-19T05:47:07.198Z,1008.91
2018-07-19T05:48:07.123Z,1008.94
2018-07-19T05:49:07.169Z,1008.91
2018-07-19T05:50:07.169Z,1008.92
2018-07-19T05:51:07.118Z,1008.94
2018-07-19T05:52:07.091Z,1008.96
2018-07-19T05:53:07.102Z,1008.96
2018-07-19T05:54:07.057Z,1008.87
2018-07-19T05:55:07.091Z,1008.88
2018-07-19T05:56:07.091Z,1008.88
2018-07-19T05:57:07.157Z,1008.89
2018-07-19T05:58:07.212Z,1008.88
2018-07-19T05:59:07.097Z,1008.80
2018-07-19T06:00:07.159Z,1008.83
2018-07-19T06:01:07.068Z,1008.82
2018-07-19T06:02:07.098Z,1008.86
2018-07-19T06:03:07.163Z,1008.84
2018-07-19T06:04:07.164Z,1008.86
2018-07-19T06:05:07.119Z,1008.89
2018-07-19T06:06:07.139Z,1008.87
2018-07-19T06:07:07.128Z,1008.85
2018-07-19T06:08:07.145Z,1008.88
2018-07-19T06:09:07.191Z,1008.89
2018-07-19T06:10:07.184Z,1008.93
2018-07-19T06:11:07.203Z,1008.95
2018-07-19T06:12:07.107Z,1008.96
2018-07-19T06:13:07.102Z,1008.95
2018-07-19T06:14:07.182Z,1008.99
2018-07-19T06:15:07.107Z,1008.94
2018-07-19T06:16:07.182Z,1008.93
2018-07-19T06:17:07.210Z,1008.91
2018-07-19T06:18:07.171Z,1008.92
2018-07-19T06:19:07.104Z,1008.89
2018-07-19T06:20:07.188Z,1008.88
2018-07-19T06:21:07.166Z,1008.94
2018-07-19T06:22:07.177Z,1008.94
2018-07-19T06:23:07.042Z,1008.92
2018-07-19T06:24:07.130Z,1008.90
2018-07-19T06:25:07.171Z,1008.90
2018-07-19T06:26:07.079Z,1008.91
2018-07-19T06:27:07.080Z,1008.89
2018-07-19T06:28:07.086Z,1008.90
2018-07-19T06:29:07.082Z,1008.93
2018-07-19T06:30:07.134Z,1008.91
2018-07-19T06:31:07.177Z,1008.91
2018-07-19T06:32:07.078Z,1008.88
2018-07-19T06:33:07.050Z,1008.86
2018-07-19T06:34:07.119Z,1008.86
2018-07-19T06:35:07.114Z,1008.87
2018-07-19T06:36:07.067Z,1008.87
2018-07-19T06:37:07.134Z,1008.84
2018-07-19T06:38:07.093Z,1008.86
2018-07-19T06:39:07.088Z,1008.82
2018-07-19T06:40:07.089Z,1008.84
2018-07-19T06:41:07.149Z,1008.85
2018-07-19T06:42:07.184Z,1008.83
2018-07-19T06:43:07.094Z,1008.83
2018-07-19T06:44:07.172Z,1008.82
2018-07-19T06:45:07.233Z,1008.87
2018-07-19T06:46:07.117Z,1008.85
2018-07-19T06:47:07.169Z,1008.83
2018-07-19T06:48:07.211Z,1008.80
2018-07-19T06:49:07.154Z,1008.88
2018-07-19T06:50:07.167Z,1008.83
2018-07-19T06:51:07.200Z,1008.82
2018-07-19T06:52:07.116Z,1008.85
2018-07-19T06:53:07.157Z,1008.83
2018-07-19T06:54:07.180Z,1008.83
2018-07-19T06:55:07.221Z,1008.82
2018-07-19T06:56:07.163Z,1008.82
2018-07-19T06:57:07.124Z,1008.80
2018-07-19T06:58:07.279Z,1008.78
2018-07-19T06:59:07.240Z,1008.80
2018-07-19T07:00:07.206Z,1008.83
2018-07-19T07:01:07.203Z,1008.80
2018-07-19T07:02:07.148Z,1008.79
2018-07-19T07:03:07.221Z,1008.81
2018-07-19T07:04:07.129Z,1008.81
2018-07-19T07:05:07.163Z,1008.80
2018-07-19T07:06:07.164Z,1008.77
2018-07-19T07:07:07.103Z,1008.80
2018-07-19T07:08:07.132Z,1008.78
2018-07-19T07:09:07.239Z,1008.81
2018-07-19T07:10:07.236Z,1008.78
2018-07-19T07:11:07.207Z,1008.75
2018-07-19T07:12:07.208Z,1008.74
2018-07-19T07:13:07.142Z,1008.75
2018-07-19T07:14:07.211Z,1008.75
2018-07-19T07:15:07.234Z,1008.73
2018-07-19T07:16:07.147Z,1008.78
2018-07-19T07:17:07.177Z,1008.79
2018-07-19T07:18:07.211Z,1008.73
2018-07-19T07:19:07.216Z,1008.73
2018-07-19T07:20:07.150Z,1008.76
2018-07-19T07:21:07.297Z,1008.77
2018-07-19T07:22:07.146Z,1008.80
2018-07-19T07:23:07.156Z,1008.82
2018-07-19T07:24:07.214Z,1008.79
2018-07-19T07:25:07.150Z,1008.79
2018-07-19T07:26:07.216Z,1008.78
2018-07-19T07:27:07.223Z,1008.81
2018-07-19T07:28:07.155Z,1008.80
2018-07-19T07:29:07.152Z,1008.80
2018-07-19T07:30:07.221Z,1008.75
2018-07-19T07:31:07.210Z,1008.75
2018-07-19T07:32:07.215Z,1008.79
2018-07-19T07:33:07.143Z,1008.80
2018-07-19T07:34:07.142Z,1008.78
2018-07-19T07:35:07.130Z,1008.79
2018-07-19T07:36:07.215Z,1008.81
2018-07-19T07:37:07.128Z,1008.81
2018-07-19T07:38:07.159Z,1008.78
2018-07-19T07:39:07.218Z,1008.80
2018-07-19T07:40:07.184Z,1008.73
2018-07-19T07:41:07.234Z,1008.70
2018-07-19T07:42:07.240Z,1008.70
2018-07-19T07:43:07.260Z,1008.68
2018-07-19T07:44:07.295Z,1008.69
2018-07-19T07:45:07.184Z,1008.69
2018-07-19T07:46:07.235Z,1008.69
2018-07-19T07:47:07.139Z,1008.72
2018-07-19T07:48:07.200Z,1008.71
2018-07-19T07:49:07.267Z,1008.71
2018-07-19T07:50:07.199Z,1008.69
2018-07-19T07:51:07.198Z,1008.70
2018-07-19T07:52:07.205Z,1008.70
2018-07-19T07:53:07.194Z,1008.71
2018-07-19T07:54:07.215Z,1008.74
2018-07-19T07:55:07.196Z,1008.70
2018-07-19T07:56:07.237Z,1008.75
2018-07-19T07:57:07.208Z,1008.73
2018-07-19T07:58:07.265Z,1008.72
2018-07-19T07:59:07.196Z,1008.74
2018-07-19T08:00:07.266Z,1008.72
2018-07-19T08:01:07.199Z,1008.71
2018-07-19T08:02:07.243Z,1008.73
2018-07-19T08:03:07.205Z,1008.68
2018-07-19T08:04:07.242Z,1008.69
2018-07-19T08:05:07.177Z,1008.70
2018-07-19T08:06:07.245Z,1008.69
2018-07-19T08:07:07.245Z,1008.72
2018-07-19T08:08:07.184Z,1008.68
2018-07-19T08:09:07.248Z,1008.70
2018-07-19T08:10:07.140Z,1008.70
2018-07-19T08:11:07.209Z,1008.69
2018-07-19T08:12:07.248Z,1008.69
2018-07-19T08:13:07.255Z,1008.67
2018-07-19T08:14:07.273Z,1008.66
2018-07-19T08:15:07.153Z,1008.69
2018-07-19T08:16:07.270Z,1008.66
2018-07-19T08:17:07.274Z,1008.68
2018-07-19T08:18:07.277Z,1008.66
2018-07-19T08:19:07.232Z,1008.63
2018-07-19T08:20:07.273Z,1008.68
2018-07-19T08:21:07.255Z,1008.69
2018-07-19T08:22:07.180Z,1008.67
2018-07-19T08:23:07.244Z,1008.67
2018-07-19T08:24:07.231Z,1008.68
2018-07-19T08:25:07.166Z,1008.71
2018-07-19T08:26:07.239Z,1008.72
2018-07-19T08:27:07.181Z,1008.71
2018-07-19T08:28:07.283Z,1008.70
2018-07-19T08:29:07.301Z,1008.70
2018-07-19T08:30:07.234Z,1008.68
2018-07-19T08:31:07.167Z,1008.61
2018-07-19T08:32:07.245Z,1008.59
2018-07-19T08:33:07.169Z,1008.62
2018-07-19T08:34:07.231Z,1008.60
2018-07-19T08:35:07.225Z,1008.60
2018-07-19T08:36:07.306Z,1008.59
2018-07-19T08:37:07.202Z,1008.60
2018-07-19T08:38:07.230Z,1008.62
2018-07-19T08:39:07.293Z,1008.62
2018-07-19T08:40:07.288Z,1008.59
2018-07-19T08:41:07.291Z,1008.61
2018-07-19T08:42:07.194Z,1008.58
2018-07-19T08:43:07.298Z,1008.53
2018-07-19T08:44:07.300Z,1008.52
2018-07-19T08:45:07.178Z,1008.49
2018-07-19T08:46:07.240Z,1008.48
2018-07-19T08:47:07.343Z,1008.50
2018-07-19T08:48:07.301Z,1008.48
2018-07-19T08:49:07.242Z,1008.48
2018-07-19T08:50:07.272Z,1008.50
2018-07-19T08:51:07.196Z,1008.51
2018-07-19T08:52:07.235Z,1008.50
2018-07-19T08:53:07.277Z,1008.48
2018-07-19T08:54:07.301Z,1008.43
2018-07-19T08:55:07.295Z,1008.45
2018-07-19T08:56:07.217Z,1008.46
2018-07-19T08:57:07.203Z,1008.44
2018-07-19T08:58:07.234Z,1008.45
2018-07-19T08:59:07.317Z,1008.47
2018-07-19T09:00:07.298Z,1008.47
2018-07-19T09:01:07.308Z,1008.46
2018-07-19T09:02:07.342Z,1008.46
2018-07-19T09:03:07.240Z,1008.41
2018-07-19T09:04:07.204Z,1008.43
2018-07-19T09:05:07.320Z,1008.44
2018-07-19T09:06:07.248Z,1008.44
2018-07-19T09:07:07.307Z,1008.43
2018-07-19T09:08:07.192Z,1008.44
2018-07-19T09:09:07.196Z,1008.42
2018-07-19T09:10:07.325Z,1008.40
2018-07-19T09:11:07.263Z,1008.35
2018-07-19T09:12:07.295Z,1008.36
2018-07-19T09:13:07.194Z,1008.37
2018-07-19T09:14:07.319Z,1008.38
2018-07-19T09:15:07.322Z,1008.36
2018-07-19T09:16:07.326Z,1008.31
2018-07-19T09:17:07.250Z,1008.36
2018-07-19T09:18:07.216Z,1008.35
2018-07-19T09:19:07.273Z,1008.38
2018-07-19T09:20:07.279Z,1008.33
2018-07-19T09:21:07.220Z,1008.35
2018-07-19T09:22:07.320Z,1008.35
2018-07-19T09:23:07.276Z,1008.34
2018-07-19T09:24:07.320Z,1008.35
2018-07-19T09:25:07.320Z,1008.35
2018-07-19T09:26:07.339Z,1008.33
2018-07-19T09:27:07.277Z,1008.34
2018-07-19T09:28:07.300Z,1008.33
2018-07-19T09:29:07.339Z,1008.35
2018-07-19T09:30:07.299Z,1008.33
2018-07-19T09:31:07.264Z,1008.34
2018-07-19T09:32:07.284Z,1008.27
2018-07-19T09:33:07.280Z,1008.22
2018-07-19T09:34:07.255Z,1008.24
2018-07-19T09:35:07.182Z,1008.22
2018-07-19T09:36:07.194Z,1008.23
2018-07-19T09:37:07.297Z,1008.21
2018-07-19T09:38:07.290Z,1008.26
2018-07-19T09:39:07.199Z,1008.30
2018-07-19T09:40:07.265Z,1008.26
2018-07-19T09:41:07.295Z,1008.25
2018-07-19T09:42:07.252Z,1008.30
2018-07-19T09:43:07.329Z,1008.30
2018-07-19T09:44:07.311Z,1008.29
2018-07-19T09:45:07.210Z,1008.26
2018-07-19T09:46:07.279Z,1008.33
2018-07-19T09:47:07.287Z,1008.31
2018-07-19T09:48:07.312Z,1008.27
2018-07-19T09:49:07.329Z,1008.31
2018-07-19T09:50:07.271Z,1008.33
2018-07-19T09:51:07.351Z,1008.34
2018-07-19T09:52:07.249Z,1008.34
2018-07-19T09:53:07.253Z,1008.30
2018-07-19T09:54:07.319Z,1008.30
2018-07-19T09:55:07.317Z,1008.27
2018-07-19T09:56:07.261Z,1008.30
2018-07-19T09:57:07.250Z,1008.28
2018-07-19T09:58:07.321Z,1008.26
2018-07-19T09:59:07.323Z,1008.23
2018-07-19T10:00:07.263Z,1008.20
2018-07-19T10:01:07.254Z,1008.29
2018-07-19T10:02:07.327Z,1008.25
2018-07-19T10:03:07.260Z,1008.25
2018-07-19T10:04:07.323Z,1008.28
2018-07-19T10:05:07.259Z,1008.26
2018-07-19T10:06:07.261Z,1008.21
2018-07-19T10:07:07.328Z,1008.21
2018-07-19T10:08:07.299Z,1008.23
2018-07-19T10:10:07.300Z,1008.21
2018-07-19T10:11:07.329Z,1008.22
2018-07-19T10:12:07.379Z,1008.24
2018-07-19T10:13:07.315Z,1008.23
2018-07-19T10:14:07.277Z,1008.23
2018-07-19T10:15:07.365Z,1008.24
2018-07-19T10:16:07.275Z,1008.26
2018-07-19T10:17:07.372Z,1008.18
2018-07-19T10:18:07.297Z,1008.20
2018-07-19T10:19:07.335Z,1008.15
2018-07-19T10:20:07.236Z,1008.19
2018-07-19T10:21:07.338Z,1008.19
2018-07-19T10:22:07.268Z,1008.18
2018-07-19T10:23:07.274Z,1008.12
2018-07-19T10:24:07.338Z,1008.16
2018-07-19T10:25:07.339Z,1008.27
2018-07-19T10:26:07.273Z,1008.20
2018-07-19T10:27:07.344Z,1008.13
2018-07-19T10:28:07.338Z,1008.17
2018-07-19T10:29:07.273Z,1008.13
2018-07-19T10:30:07.228Z,1008.11
2018-07-19T10:31:07.340Z,1008.09
2018-07-19T10:32:07.456Z,1008.16
2018-07-19T10:33:07.386Z,1008.07
2018-07-19T10:34:07.392Z,1008.07
2018-07-19T10:35:07.359Z,1008.09
2018-07-19T10:36:07.388Z,1008.12
2018-07-19T10:37:07.347Z,1008.06
2018-07-19T10:38:07.374Z,1008.09
2018-07-19T10:39:07.348Z,1008.09
2018-07-19T10:40:07.382Z,1008.03
2018-07-19T10:41:07.395Z,1008.06
2018-07-19T10:42:07.288Z,1008.02
2018-07-19T10:43:07.415Z,1008.00
2018-07-19T10:44:07.353Z,1008.00
2018-07-19T10:45:07.356Z,1007.94
2018-07-19T10:46:07.300Z,1007.95
2018-07-19T10:47:07.294Z,1008.01
2018-07-19T10:48:07.353Z,1007.95
2018-07-19T10:49:07.288Z,1007.94
2018-07-19T10:50:07.376Z,1007.96
2018-07-19T10:51:07.247Z,1007.97
2018-07-19T10:52:07.284Z,1007.97
2018-07-19T10:53:07.386Z,1008.02
2018-07-19T10:54:07.281Z,1008.00
2018-07-19T10:55:07.382Z,1007.94
2018-07-19T10:56:07.266Z,1007.91
2018-07-19T10:57:07.315Z,1007.91
2018-07-19T10:58:07.380Z,1007.89
2018-07-19T10:59:07.363Z,1007.90
2018-07-19T11:00:07.637Z,1007.91
2018-07-19T11:01:07.267Z,1007.96
2018-07-19T11:02:07.318Z,1007.90
2018-07-19T11:03:07.266Z,1007.91
2018-07-19T11:04:07.379Z,1007.88
2018-07-19T11:05:07.390Z,1007.88
2018-07-19T11:06:07.337Z,1007.88
2018-07-19T11:07:07.334Z,1007.84
2018-07-19T11:08:07.268Z,1007.83
2018-07-19T11:09:07.337Z,1007.86
2018-07-19T11:10:07.395Z,1007.88
2018-07-19T11:11:07.378Z,1007.81
2018-07-19T11:12:07.333Z,1007.83
2018-07-19T11:13:07.303Z,1007.81
2018-07-19T11:14:07.241Z,1007.79
2018-07-19T11:15:07.328Z,1007.79
2018-07-19T11:16:07.264Z,1007.79
2018-07-19T11:17:07.322Z,1007.76
2018-07-19T11:18:07.309Z,1007.75
2018-07-19T11:19:07.351Z,1007.76
2018-07-19T11:20:07.267Z,1007.80
2018-07-19T11:21:07.241Z,1007.77
2018-07-19T11:22:07.274Z,1007.74
2018-07-19T11:23:07.346Z,1007.76
2018-07-19T11:24:07.333Z,1007.77
2018-07-19T11:25:07.413Z,1007.74
2018-07-19T11:26:07.339Z,1007.70
2018-07-19T11:27:07.383Z,1007.67
2018-07-19T11:28:07.415Z,1007.68
2018-07-19T11:29:07.411Z,1007.66
2018-07-19T11:30:07.366Z,1007.63
2018-07-19T11:31:07.397Z,1007.65
2018-07-19T11:32:07.418Z,1007.61
2018-07-19T11:33:07.355Z,1007.66
2018-07-19T11:34:07.357Z,1007.68
2018-07-19T11:35:07.288Z,1007.60
2018-07-19T11:36:07.325Z,1007.62
2018-07-19T11:37:07.344Z,1007.61
2018-07-19T11:38:07.310Z,1007.59
2018-07-19T11:39:07.416Z,1007.56
2018-07-19T11:40:07.366Z,1007.56
2018-07-19T11:41:07.300Z,1007.55
2018-07-19T11:42:07.312Z,1007.57
2018-07-19T11:43:07.261Z,1007.58
2018-07-19T11:44:07.300Z,1007.59
2018-07-19T11:45:07.386Z,1007.57
2018-07-19T11:46:07.387Z,1007.55
2018-07-19T11:47:07.386Z,1007.58
2018-07-19T11:48:07.320Z,1007.56
2018-07-19T11:49:07.325Z,1007.52
2018-07-19T11:50:07.356Z,1007.51
2018-07-19T11:51:07.393Z,1007.46
2018-07-19T11:52:07.394Z,1007.46
2018-07-19T11:53:07.396Z,1007.42
2018-07-19T11:54:07.282Z,1007.43
2018-07-19T11:55:07.398Z,1007.37
2018-07-19T11:56:07.392Z,1007.38
2018-07-19T11:57:07.388Z,1007.38
2018-07-19T11:58:07.351Z,1007.36
2018-07-19T11:59:07.392Z,1007.35
2018-07-19T12:00:07.394Z,1007.27
2018-07-19T12:01:07.421Z,1007.30
2018-07-19T12:02:07.423Z,1007.28
2018-07-19T12:03:07.366Z,1007.28
2018-07-19T12:04:07.362Z,1007.32
2018-07-19T12:05:07.382Z,1007.29
2018-07-19T12:06:07.429Z,1007.26